sensor_id;sensor_type;location;lat;lon;timestamp;temperature;humidity
15083;DHT22;7640;53.116;6.878;2023-03-01T00:01:53;0.30;99.90
15083;DHT22;7640;53.116;6.878;2023-03-01T00:04:21;0.30;99.90
15083;DHT22;7640;53.116;6.878;2023-03-01T00:06:49;0.20;99.90
15083;DHT22;7640;53.116;6.878;2023-03-01T00:09:18;0.20;99.90
15083;DHT22;7640;53.116;6.878;2023-03-01T00:11:46;0.20;99.90
15083;DHT22;7640;53.116;6.878;2023-03-01T00:14:15;0.20;99.90
15083;DHT22;7640;53.116;6.878;2023-03-01T00:16:46;0.20;99.90
15083;DHT22;7640;53.116;6.878;2023-03-01T00:19:18;0.10;99.90
15083;DHT22;7640;53.116;6.878;2023-03-01T00:21:48;0.10;99.90
15083;DHT22;7640;53.116;6.878;2023-03-01T00:24:17;0.10;99.90
15083;DHT22;7640;53.116;6.878;2023-03-01T00:26:45;0.10;99.90
15083;DHT22;7640;53.116;6.878;2023-03-01T00:29:14;0.00;99.90
15083;DHT22;7640;53.116;6.878;2023-03-01T00:31:42;0.00;99.90
15083;DHT22;7640;53.116;6.878;2023-03-01T00:34:11;0.00;99.90
15083;DHT22;7640;53.116;6.878;2023-03-01T00:36:41;0.00;99.90
15083;DHT22;7640;53.116;6.878;2023-03-01T00:39:12;0.00;99.90
15083;DHT22;7640;53.116;6.878;2023-03-01T00:41:41;-0.10;99.90
15083;DHT22;7640;53.116;6.878;2023-03-01T00:44:11;-0.10;99.90
15083;DHT22;7640;53.116;6.878;2023-03-01T00:46:39;-0.10;99.90
15083;DHT22;7640;53.116;6.878;2023-03-01T00:49:08;-0.10;99.90
15083;DHT22;7640;53.116;6.878;2023-03-01T00:51:36;-0.10;99.90
15083;DHT22;7640;53.116;6.878;2023-03-01T00:54:08;-0.10;99.90
15083;DHT22;7640;53.116;6.878;2023-03-01T00:56:37;-0.20;99.90
15083;DHT22;7640;53.116;6.878;2023-03-01T00:59:05;-0.20;99.90
15083;DHT22;7640;53.116;6.878;2023-03-01T01:01:34;-0.20;99.90
15083;DHT22;7640;53.116;6.878;2023-03-01T01:04:04;-0.20;99.90
15083;DHT22;7640;53.116;6.878;2023-03-01T01:06:35;-0.20;99.90
15083;DHT22;7640;53.116;6.878;2023-03-01T01:09:12;-0.30;99.90
15083;DHT22;7640;53.116;6.878;2023-03-01T01:11:44;-0.30;99.90
15083;DHT22;7640;53.116;6.878;2023-03-01T01:14:15;-0.30;99.90
15083;DHT22;7640;53.116;6.878;2023-03-01T01:16:44;-0.30;99.90
15083;DHT22;7640;53.116;6.878;2023-03-01T01:19:12;-0.40;99.90
15083;DHT22;7640;53.116;6.878;2023-03-01T01:21:41;-0.40;99.90
15083;DHT22;7640;53.116;6.878;2023-03-01T01:24:12;-0.40;99.90
15083;DHT22;7640;53.116;6.878;2023-03-01T01:26:40;-0.40;99.90
15083;DHT22;7640;53.116;6.878;2023-03-01T01:29:10;-0.50;99.90
15083;DHT22;7640;53.116;6.878;2023-03-01T01:31:40;-0.50;99.90
15083;DHT22;7640;53.116;6.878;2023-03-01T01:34:14;-0.50;99.90
15083;DHT22;7640;53.116;6.878;2023-03-01T01:36:44;-0.50;99.90
15083;DHT22;7640;53.116;6.878;2023-03-01T01:39:17;-0.50;99.90
15083;DHT22;7640;53.116;6.878;2023-03-01T01:41:47;-0.60;99.90
15083;DHT22;7640;53.116;6.878;2023-03-01T01:44:19;-0.60;99.90
15083;DHT22;7640;53.116;6.878;2023-03-01T01:46:53;-0.60;99.90
15083;DHT22;7640;53.116;6.878;2023-03-01T01:49:29;-0.60;99.90
15083;DHT22;7640;53.116;6.878;2023-03-01T01:52:04;-0.60;99.90
15083;DHT22;7640;53.116;6.878;2023-03-01T01:54:42;-0.60;99.90
15083;DHT22;7640;53.116;6.878;2023-03-01T01:57:18;-0.60;99.90
15083;DHT22;7640;53.116;6.878;2023-03-01T01:59:51;-0.70;99.90
15083;DHT22;7640;53.116;6.878;2023-03-01T02:02:22;-0.70;99.90
15083;DHT22;7640;53.116;6.878;2023-03-01T02:04:54;-0.60;99.90
15083;DHT22;7640;53.116;6.878;2023-03-01T02:07:26;-0.70;99.90
15083;DHT22;7640;53.116;6.878;2023-03-01T02:09:57;-0.70;99.90
15083;DHT22;7640;53.116;6.878;2023-03-01T02:12:26;-0.70;99.90
15083;DHT22;7640;53.116;6.878;2023-03-01T02:14:55;-0.80;99.90
15083;DHT22;7640;53.116;6.878;2023-03-01T02:17:24;-0.80;99.90
15083;DHT22;7640;53.116;6.878;2023-03-01T02:20:03;-0.80;99.90
15083;DHT22;7640;53.116;6.878;2023-03-01T02:22:37;-0.80;99.90
15083;DHT22;7640;53.116;6.878;2023-03-01T02:25:20;-0.80;99.90
15083;DHT22;7640;53.116;6.878;2023-03-01T02:27:56;-0.80;99.90
15083;DHT22;7640;53.116;6.878;2023-03-01T02:30:29;-0.80;99.90
15083;DHT22;7640;53.116;6.878;2023-03-01T02:33:00;-0.80;99.90
15083;DHT22;7640;53.116;6.878;2023-03-01T02:35:32;-0.90;99.90
15083;DHT22;7640;53.116;6.878;2023-03-01T02:38:03;-0.90;99.90
15083;DHT22;7640;53.116;6.878;2023-03-01T02:40:36;-0.90;99.90
15083;DHT22;7640;53.116;6.878;2023-03-01T02:43:08;-0.90;99.90
15083;DHT22;7640;53.116;6.878;2023-03-01T02:45:47;-0.90;99.90
15083;DHT22;7640;53.116;6.878;2023-03-01T02:48:16;-1.00;99.90
15083;DHT22;7640;53.116;6.878;2023-03-01T02:50:55;-1.00;99.90
15083;DHT22;7640;53.116;6.878;2023-03-01T02:53:38;-1.00;99.90
15083;DHT22;7640;53.116;6.878;2023-03-01T02:56:08;-1.00;99.90
15083;DHT22;7640;53.116;6.878;2023-03-01T02:58:40;-1.00;99.90
15083;DHT22;7640;53.116;6.878;2023-03-01T03:01:14;-1.00;99.90
15083;DHT22;7640;53.116;6.878;2023-03-01T03:03:43;-1.10;99.90
15083;DHT22;7640;53.116;6.878;2023-03-01T03:06:12;-1.00;99.90
15083;DHT22;7640;53.116;6.878;2023-03-01T03:08:41;-1.10;99.90
15083;DHT22;7640;53.116;6.878;2023-03-01T03:11:10;-1.10;99.90
15083;DHT22;7640;53.116;6.878;2023-03-01T03:13:39;-1.10;99.90
15083;DHT22;7640;53.116;6.878;2023-03-01T03:16:16;-1.10;99.90
15083;DHT22;7640;53.116;6.878;2023-03-01T03:18:45;-1.10;99.90
15083;DHT22;7640;53.116;6.878;2023-03-01T03:21:14;-1.20;99.90
15083;DHT22;7640;53.116;6.878;2023-03-01T03:23:43;-1.10;99.90
15083;DHT22;7640;53.116;6.878;2023-03-01T03:26:11;-1.20;99.90
15083;DHT22;7640;53.116;6.878;2023-03-01T03:28:42;-1.20;99.90
15083;DHT22;7640;53.116;6.878;2023-03-01T03:31:10;-1.20;99.90
15083;DHT22;7640;53.116;6.878;2023-03-01T03:33:40;-1.30;99.90
15083;DHT22;7640;53.116;6.878;2023-03-01T03:36:09;-1.30;99.90
15083;DHT22;7640;53.116;6.878;2023-03-01T03:38:40;-1.20;99.90
15083;DHT22;7640;53.116;6.878;2023-03-01T03:41:08;-1.30;99.90
15083;DHT22;7640;53.116;6.878;2023-03-01T03:43:38;-1.30;99.90
15083;DHT22;7640;53.116;6.878;2023-03-01T03:46:10;-1.30;99.90
15083;DHT22;7640;53.116;6.878;2023-03-01T03:48:41;-1.30;99.90
15083;DHT22;7640;53.116;6.878;2023-03-01T03:51:11;-1.30;99.90
15083;DHT22;7640;53.116;6.878;2023-03-01T03:53:41;-1.30;99.90
15083;DHT22;7640;53.116;6.878;2023-03-01T03:56:10;-1.30;99.90
15083;DHT22;7640;53.116;6.878;2023-03-01T03:58:39;-1.30;99.90
15083;DHT22;7640;53.116;6.878;2023-03-01T04:01:07;-1.30;99.90
15083;DHT22;7640;53.116;6.878;2023-03-01T04:03:36;-1.30;99.90
15083;DHT22;7640;53.116;6.878;2023-03-01T04:06:06;-1.30;99.90
15083;DHT22;7640;53.116;6.878;2023-03-01T04:08:34;-1.30;99.90
15083;DHT22;7640;53.116;6.878;2023-03-01T04:11:04;-1.30;99.90
15083;DHT22;7640;53.116;6.878;2023-03-01T04:13:47;-1.30;99.90
15083;DHT22;7640;53.116;6.878;2023-03-01T04:16:16;-1.30;99.90
15083;DHT22;7640;53.116;6.878;2023-03-01T04:18:45;-1.30;99.90
15083;DHT22;7640;53.116;6.878;2023-03-01T04:21:15;-1.30;99.90
15083;DHT22;7640;53.116;6.878;2023-03-01T04:23:43;-1.30;99.90
15083;DHT22;7640;53.116;6.878;2023-03-01T04:26:12;-1.40;99.90
15083;DHT22;7640;53.116;6.878;2023-03-01T04:28:41;-1.40;99.90
15083;DHT22;7640;53.116;6.878;2023-03-01T04:31:14;-1.40;99.90
15083;DHT22;7640;53.116;6.878;2023-03-01T04:33:46;-1.40;99.90
15083;DHT22;7640;53.116;6.878;2023-03-01T04:36:18;-1.40;99.90
15083;DHT22;7640;53.116;6.878;2023-03-01T04:38:48;-1.40;99.90
15083;DHT22;7640;53.116;6.878;2023-03-01T04:41:18;-1.50;99.90
15083;DHT22;7640;53.116;6.878;2023-03-01T04:43:47;-1.50;99.90
15083;DHT22;7640;53.116;6.878;2023-03-01T04:46:18;-1.50;99.90
15083;DHT22;7640;53.116;6.878;2023-03-01T04:48:49;-1.50;99.90
15083;DHT22;7640;53.116;6.878;2023-03-01T04:51:18;-1.50;99.90
15083;DHT22;7640;53.116;6.878;2023-03-01T04:53:47;-1.50;99.90
15083;DHT22;7640;53.116;6.878;2023-03-01T04:56:16;-1.60;99.90
15083;DHT22;7640;53.116;6.878;2023-03-01T04:58:46;-1.60;99.90
15083;DHT22;7640;53.116;6.878;2023-03-01T05:01:16;-1.60;99.90
15083;DHT22;7640;53.116;6.878;2023-03-01T05:03:47;-1.60;99.90
15083;DHT22;7640;53.116;6.878;2023-03-01T05:06:19;-1.60;99.90
15083;DHT22;7640;53.116;6.878;2023-03-01T05:08:51;-1.60;99.90
15083;DHT22;7640;53.116;6.878;2023-03-01T05:11:27;-1.60;99.90
15083;DHT22;7640;53.116;6.878;2023-03-01T05:14:00;-1.60;99.90
15083;DHT22;7640;53.116;6.878;2023-03-01T05:16:28;-1.60;99.90
15083;DHT22;7640;53.116;6.878;2023-03-01T05:19:01;-1.60;99.90
15083;DHT22;7640;53.116;6.878;2023-03-01T05:21:39;-1.60;99.90
15083;DHT22;7640;53.116;6.878;2023-03-01T05:24:29;-1.60;99.90
15083;DHT22;7640;53.116;6.878;2023-03-01T05:26:59;-1.60;99.90
15083;DHT22;7640;53.116;6.878;2023-03-01T05:29:30;-1.60;99.90
15083;DHT22;7640;53.116;6.878;2023-03-01T05:32:02;-1.70;99.90
15083;DHT22;7640;53.116;6.878;2023-03-01T05:34:33;-1.60;99.90
15083;DHT22;7640;53.116;6.878;2023-03-01T05:37:04;-1.70;99.90
15083;DHT22;7640;53.116;6.878;2023-03-01T05:39:34;-1.70;99.90
15083;DHT22;7640;53.116;6.878;2023-03-01T05:42:03;-1.70;99.90
15083;DHT22;7640;53.116;6.878;2023-03-01T05:44:31;-1.70;99.90
15083;DHT22;7640;53.116;6.878;2023-03-01T05:47:00;-1.70;99.90
15083;DHT22;7640;53.116;6.878;2023-03-01T05:49:28;-1.70;99.90
15083;DHT22;7640;53.116;6.878;2023-03-01T05:51:57;-1.70;99.90
15083;DHT22;7640;53.116;6.878;2023-03-01T05:54:27;-1.70;99.90
15083;DHT22;7640;53.116;6.878;2023-03-01T05:56:55;-1.70;99.90
15083;DHT22;7640;53.116;6.878;2023-03-01T05:59:24;-1.70;99.90
15083;DHT22;7640;53.116;6.878;2023-03-01T06:01:52;-1.70;99.90
15083;DHT22;7640;53.116;6.878;2023-03-01T06:04:21;-1.70;99.90
15083;DHT22;7640;53.116;6.878;2023-03-01T06:06:49;-1.70;99.90
15083;DHT22;7640;53.116;6.878;2023-03-01T06:09:18;-1.80;99.90
15083;DHT22;7640;53.116;6.878;2023-03-01T06:11:47;-1.80;99.90
15083;DHT22;7640;53.116;6.878;2023-03-01T06:14:16;-1.80;99.90
15083;DHT22;7640;53.116;6.878;2023-03-01T06:16:44;-1.80;99.90
15083;DHT22;7640;53.116;6.878;2023-03-01T06:19:12;-1.80;99.90
15083;DHT22;7640;53.116;6.878;2023-03-01T06:21:41;-1.80;99.90
15083;DHT22;7640;53.116;6.878;2023-03-01T06:24:09;-1.80;99.90
15083;DHT22;7640;53.116;6.878;2023-03-01T06:26:38;-1.80;99.90
15083;DHT22;7640;53.116;6.878;2023-03-01T06:29:07;-1.90;99.90
15083;DHT22;7640;53.116;6.878;2023-03-01T06:31:36;-1.90;99.90
15083;DHT22;7640;53.116;6.878;2023-03-01T06:34:04;-1.90;99.90
15083;DHT22;7640;53.116;6.878;2023-03-01T06:36:33;-1.90;99.90
15083;DHT22;7640;53.116;6.878;2023-03-01T06:39:01;-1.90;99.90
15083;DHT22;7640;53.116;6.878;2023-03-01T06:41:29;-1.90;99.90
15083;DHT22;7640;53.116;6.878;2023-03-01T06:43:58;-1.90;99.90
15083;DHT22;7640;53.116;6.878;2023-03-01T06:46:28;-1.90;99.90
15083;DHT22;7640;53.116;6.878;2023-03-01T06:48:58;-1.80;99.90
15083;DHT22;7640;53.116;6.878;2023-03-01T06:51:26;-1.80;99.90
15083;DHT22;7640;53.116;6.878;2023-03-01T06:53:54;-1.80;99.90
15083;DHT22;7640;53.116;6.878;2023-03-01T06:56:23;-1.70;99.90
15083;DHT22;7640;53.116;6.878;2023-03-01T06:58:51;-1.70;99.90
15083;DHT22;7640;53.116;6.878;2023-03-01T07:01:20;-1.60;99.90
15083;DHT22;7640;53.116;6.878;2023-03-01T07:03:49;-1.60;99.90
15083;DHT22;7640;53.116;6.878;2023-03-01T07:06:18;-1.60;99.90
15083;DHT22;7640;53.116;6.878;2023-03-01T07:08:46;-1.50;99.90
15083;DHT22;7640;53.116;6.878;2023-03-01T07:11:15;-1.50;99.90
15083;DHT22;7640;53.116;6.878;2023-03-01T07:13:44;-1.50;99.90
15083;DHT22;7640;53.116;6.878;2023-03-01T07:16:12;-1.40;99.90
15083;DHT22;7640;53.116;6.878;2023-03-01T07:18:41;-1.40;99.90
15083;DHT22;7640;53.116;6.878;2023-03-01T07:21:13;-1.30;99.90
15083;DHT22;7640;53.116;6.878;2023-03-01T07:23:43;-1.20;99.90
15083;DHT22;7640;53.116;6.878;2023-03-01T07:26:11;-1.10;99.90
15083;DHT22;7640;53.116;6.878;2023-03-01T07:28:40;-1.00;99.90
15083;DHT22;7640;53.116;6.878;2023-03-01T07:31:08;-0.90;99.90
15083;DHT22;7640;53.116;6.878;2023-03-01T07:33:37;-0.80;99.90
15083;DHT22;7640;53.116;6.878;2023-03-01T07:36:06;-0.70;99.90
15083;DHT22;7640;53.116;6.878;2023-03-01T07:38:36;-0.60;99.90
15083;DHT22;7640;53.116;6.878;2023-03-01T07:41:05;-0.40;99.90
15083;DHT22;7640;53.116;6.878;2023-03-01T07:43:33;-0.30;99.90
15083;DHT22;7640;53.116;6.878;2023-03-01T07:46:02;-0.20;99.90
15083;DHT22;7640;53.116;6.878;2023-03-01T07:48:31;0.00;99.90
15083;DHT22;7640;53.116;6.878;2023-03-01T07:51:00;0.10;99.90
15083;DHT22;7640;53.116;6.878;2023-03-01T07:53:29;0.20;99.90
15083;DHT22;7640;53.116;6.878;2023-03-01T07:56:03;0.40;99.90
15083;DHT22;7640;53.116;6.878;2023-03-01T07:58:34;0.50;99.90
15083;DHT22;7640;53.116;6.878;2023-03-01T08:01:03;0.60;99.90
15083;DHT22;7640;53.116;6.878;2023-03-01T08:03:32;0.70;99.90
15083;DHT22;7640;53.116;6.878;2023-03-01T08:06:01;0.80;99.90
15083;DHT22;7640;53.116;6.878;2023-03-01T08:08:30;0.90;99.90
15083;DHT22;7640;53.116;6.878;2023-03-01T08:11:02;1.00;99.90
15083;DHT22;7640;53.116;6.878;2023-03-01T08:13:31;1.00;99.90
15083;DHT22;7640;53.116;6.878;2023-03-01T08:16:01;1.10;99.90
15083;DHT22;7640;53.116;6.878;2023-03-01T08:18:31;1.10;99.90
15083;DHT22;7640;53.116;6.878;2023-03-01T08:21:04;1.20;99.90
15083;DHT22;7640;53.116;6.878;2023-03-01T08:23:34;1.20;99.90
15083;DHT22;7640;53.116;6.878;2023-03-01T08:26:06;1.20;99.90
15083;DHT22;7640;53.116;6.878;2023-03-01T08:28:36;1.20;99.90
15083;DHT22;7640;53.116;6.878;2023-03-01T08:31:14;1.30;99.90
15083;DHT22;7640;53.116;6.878;2023-03-01T08:33:44;1.30;99.90
15083;DHT22;7640;53.116;6.878;2023-03-01T08:36:18;1.30;99.90
15083;DHT22;7640;53.116;6.878;2023-03-01T08:38:48;1.40;99.90
15083;DHT22;7640;53.116;6.878;2023-03-01T08:41:18;1.40;99.90
15083;DHT22;7640;53.116;6.878;2023-03-01T08:43:48;1.40;99.90
15083;DHT22;7640;53.116;6.878;2023-03-01T08:46:17;1.50;99.90
15083;DHT22;7640;53.116;6.878;2023-03-01T08:48:45;1.60;99.90
15083;DHT22;7640;53.116;6.878;2023-03-01T08:51:17;1.70;99.90
15083;DHT22;7640;53.116;6.878;2023-03-01T08:53:46;1.80;99.90
15083;DHT22;7640;53.116;6.878;2023-03-01T08:56:16;1.80;99.90
15083;DHT22;7640;53.116;6.878;2023-03-01T08:58:47;2.00;99.90
15083;DHT22;7640;53.116;6.878;2023-03-01T09:01:18;2.10;99.90
15083;DHT22;7640;53.116;6.878;2023-03-01T09:03:47;2.20;99.90
15083;DHT22;7640;53.116;6.878;2023-03-01T09:06:15;2.30;99.90
15083;DHT22;7640;53.116;6.878;2023-03-01T09:08:45;2.40;99.90
15083;DHT22;7640;53.116;6.878;2023-03-01T09:11:19;2.50;99.90
15083;DHT22;7640;53.116;6.878;2023-03-01T09:13:49;2.60;99.90
15083;DHT22;7640;53.116;6.878;2023-03-01T09:16:19;2.60;99.90
15083;DHT22;7640;53.116;6.878;2023-03-01T09:18:50;2.70;99.90
15083;DHT22;7640;53.116;6.878;2023-03-01T09:21:20;2.70;99.90
15083;DHT22;7640;53.116;6.878;2023-03-01T09:24:06;2.70;99.90
15083;DHT22;7640;53.116;6.878;2023-03-01T09:26:37;2.80;99.90
15083;DHT22;7640;53.116;6.878;2023-03-01T09:29:06;2.80;99.90
15083;DHT22;7640;53.116;6.878;2023-03-01T09:31:36;2.90;99.90
15083;DHT22;7640;53.116;6.878;2023-03-01T09:34:05;2.90;99.90
15083;DHT22;7640;53.116;6.878;2023-03-01T09:36:35;2.90;99.90
15083;DHT22;7640;53.116;6.878;2023-03-01T09:39:04;3.00;99.90
15083;DHT22;7640;53.116;6.878;2023-03-01T09:41:45;3.10;99.90
15083;DHT22;7640;53.116;6.878;2023-03-01T09:44:29;3.10;99.90
15083;DHT22;7640;53.116;6.878;2023-03-01T09:47:01;3.20;99.90
15083;DHT22;7640;53.116;6.878;2023-03-01T09:49:32;3.30;99.90
15083;DHT22;7640;53.116;6.878;2023-03-01T09:52:09;3.30;99.90
15083;DHT22;7640;53.116;6.878;2023-03-01T09:54:40;3.40;99.90
15083;DHT22;7640;53.116;6.878;2023-03-01T09:57:19;3.50;99.90
15083;DHT22;7640;53.116;6.878;2023-03-01T10:00:04;3.60;99.90
15083;DHT22;7640;53.116;6.878;2023-03-01T10:02:51;3.60;99.90
15083;DHT22;7640;53.116;6.878;2023-03-01T10:05:31;3.70;99.90
15083;DHT22;7640;53.116;6.878;2023-03-01T10:08:24;3.80;99.90
15083;DHT22;7640;53.116;6.878;2023-03-01T10:10:56;3.80;99.90
15083;DHT22;7640;53.116;6.878;2023-03-01T10:13:29;3.90;99.90
15083;DHT22;7640;53.116;6.878;2023-03-01T10:16:09;4.00;99.90
15083;DHT22;7640;53.116;6.878;2023-03-01T10:18:41;4.00;99.90
15083;DHT22;7640;53.116;6.878;2023-03-01T10:21:15;4.10;99.90
15083;DHT22;7640;53.116;6.878;2023-03-01T10:23:46;4.10;99.90
15083;DHT22;7640;53.116;6.878;2023-03-01T10:26:36;4.20;99.90
15083;DHT22;7640;53.116;6.878;2023-03-01T10:29:11;4.30;99.90
15083;DHT22;7640;53.116;6.878;2023-03-01T10:31:43;4.30;99.90
15083;DHT22;7640;53.116;6.878;2023-03-01T10:34:15;4.40;99.90
15083;DHT22;7640;53.116;6.878;2023-03-01T10:36:48;4.50;99.90
15083;DHT22;7640;53.116;6.878;2023-03-01T10:39:19;4.50;99.90
15083;DHT22;7640;53.116;6.878;2023-03-01T10:41:58;4.60;99.90
15083;DHT22;7640;53.116;6.878;2023-03-01T10:44:38;4.60;99.90
15083;DHT22;7640;53.116;6.878;2023-03-01T10:47:18;4.60;99.90
15083;DHT22;7640;53.116;6.878;2023-03-01T10:49:56;4.70;99.90
15083;DHT22;7640;53.116;6.878;2023-03-01T10:52:30;4.80;99.90
15083;DHT22;7640;53.116;6.878;2023-03-01T10:55:02;4.80;99.90
15083;DHT22;7640;53.116;6.878;2023-03-01T10:57:36;4.90;99.90
15083;DHT22;7640;53.116;6.878;2023-03-01T11:00:31;4.90;99.90
15083;DHT22;7640;53.116;6.878;2023-03-01T11:03:10;5.00;99.90
15083;DHT22;7640;53.116;6.878;2023-03-01T11:06:02;5.10;99.90
15083;DHT22;7640;53.116;6.878;2023-03-01T11:08:36;5.20;99.90
15083;DHT22;7640;53.116;6.878;2023-03-01T11:11:26;5.30;99.90
15083;DHT22;7640;53.116;6.878;2023-03-01T11:14:01;5.40;99.90
15083;DHT22;7640;53.116;6.878;2023-03-01T11:17:00;5.40;99.90
15083;DHT22;7640;53.116;6.878;2023-03-01T11:19:30;5.40;99.90
15083;DHT22;7640;53.116;6.878;2023-03-01T11:22:02;5.50;99.90
15083;DHT22;7640;53.116;6.878;2023-03-01T11:24:38;5.50;99.90
15083;DHT22;7640;53.116;6.878;2023-03-01T11:27:17;5.60;99.90
15083;DHT22;7640;53.116;6.878;2023-03-01T11:29:52;5.60;99.90
15083;DHT22;7640;53.116;6.878;2023-03-01T11:32:26;5.70;99.90
15083;DHT22;7640;53.116;6.878;2023-03-01T11:34:59;5.80;99.90
15083;DHT22;7640;53.116;6.878;2023-03-01T11:37:35;5.90;99.90
15083;DHT22;7640;53.116;6.878;2023-03-01T11:40:13;6.00;99.90
15083;DHT22;7640;53.116;6.878;2023-03-01T11:42:53;6.00;99.90
15083;DHT22;7640;53.116;6.878;2023-03-01T11:45:30;6.10;99.90
15083;DHT22;7640;53.116;6.878;2023-03-01T11:48:22;6.20;99.90
15083;DHT22;7640;53.116;6.878;2023-03-01T11:51:20;6.30;99.90
15083;DHT22;7640;53.116;6.878;2023-03-01T11:54:02;6.50;99.90
15083;DHT22;7640;53.116;6.878;2023-03-01T11:56:38;6.50;99.90
15083;DHT22;7640;53.116;6.878;2023-03-01T11:59:39;6.60;99.90
15083;DHT22;7640;53.116;6.878;2023-03-01T12:02:40;6.70;99.90
15083;DHT22;7640;53.116;6.878;2023-03-01T12:06:01;6.80;99.90
15083;DHT22;7640;53.116;6.878;2023-03-01T12:09:02;6.90;99.90
15083;DHT22;7640;53.116;6.878;2023-03-01T12:11:50;7.10;99.90
15083;DHT22;7640;53.116;6.878;2023-03-01T12:14:39;7.10;99.90
15083;DHT22;7640;53.116;6.878;2023-03-01T12:20:29;7.30;99.90
15083;DHT22;7640;53.116;6.878;2023-03-01T12:23:20;7.40;99.90
15083;DHT22;7640;53.116;6.878;2023-03-01T12:26:06;7.50;99.90
15083;DHT22;7640;53.116;6.878;2023-03-01T12:29:02;7.60;99.90
15083;DHT22;7640;53.116;6.878;2023-03-01T12:32:05;7.80;99.90
15083;DHT22;7640;53.116;6.878;2023-03-01T12:38:06;8.00;99.90
15083;DHT22;7640;53.116;6.878;2023-03-01T12:40:57;8.20;99.90
15083;DHT22;7640;53.116;6.878;2023-03-01T12:43:47;8.30;99.90
15083;DHT22;7640;53.116;6.878;2023-03-01T12:46:28;8.40;99.90
15083;DHT22;7640;53.116;6.878;2023-03-01T12:49:08;8.60;99.90
15083;DHT22;7640;53.116;6.878;2023-03-01T12:51:42;8.70;99.90
15083;DHT22;7640;53.116;6.878;2023-03-01T12:54:16;8.90;99.90
15083;DHT22;7640;53.116;6.878;2023-03-01T12:56:49;9.10;99.90
15083;DHT22;7640;53.116;6.878;2023-03-01T12:59:23;9.20;99.90
15083;DHT22;7640;53.116;6.878;2023-03-01T13:02:02;9.30;99.90
15083;DHT22;7640;53.116;6.878;2023-03-01T13:04:41;9.40;99.90
15083;DHT22;7640;53.116;6.878;2023-03-01T13:07:28;9.50;99.90
15083;DHT22;7640;53.116;6.878;2023-03-01T13:10:13;9.70;99.90
15083;DHT22;7640;53.116;6.878;2023-03-01T13:12:51;10.10;99.90
15083;DHT22;7640;53.116;6.878;2023-03-01T13:15:32;10.50;99.90
15083;DHT22;7640;53.116;6.878;2023-03-01T13:18:03;11.00;99.90
15083;DHT22;7640;53.116;6.878;2023-03-01T13:20:46;11.40;99.90
15083;DHT22;7640;53.116;6.878;2023-03-01T13:23:26;11.70;99.90
15083;DHT22;7640;53.116;6.878;2023-03-01T13:26:21;12.00;99.90
15083;DHT22;7640;53.116;6.878;2023-03-01T13:28:56;12.40;99.90
15083;DHT22;7640;53.116;6.878;2023-03-01T13:31:57;12.70;99.90
15083;DHT22;7640;53.116;6.878;2023-03-01T13:34:44;13.00;99.90
15083;DHT22;7640;53.116;6.878;2023-03-01T13:37:36;13.20;99.90
15083;DHT22;7640;53.116;6.878;2023-03-01T13:43:32;13.80;99.90
15083;DHT22;7640;53.116;6.878;2023-03-01T13:46:09;14.00;99.90
15083;DHT22;7640;53.116;6.878;2023-03-01T13:48:40;14.30;99.90
15083;DHT22;7640;53.116;6.878;2023-03-01T13:51:11;14.50;99.90
15083;DHT22;7640;53.116;6.878;2023-03-01T13:53:43;14.60;99.90
15083;DHT22;7640;53.116;6.878;2023-03-01T13:56:16;14.60;99.90
15083;DHT22;7640;53.116;6.878;2023-03-01T13:58:52;14.80;99.90
15083;DHT22;7640;53.116;6.878;2023-03-01T14:01:25;14.90;99.90
15083;DHT22;7640;53.116;6.878;2023-03-01T14:03:56;14.70;99.90
15083;DHT22;7640;53.116;6.878;2023-03-01T14:06:26;14.30;99.90
15083;DHT22;7640;53.116;6.878;2023-03-01T14:09:20;13.80;99.90
15083;DHT22;7640;53.116;6.878;2023-03-01T14:12:05;13.10;99.90
15083;DHT22;7640;53.116;6.878;2023-03-01T14:14:46;12.50;99.90
15083;DHT22;7640;53.116;6.878;2023-03-01T14:17:43;11.90;99.90
15083;DHT22;7640;53.116;6.878;2023-03-01T14:20:19;11.50;99.90
15083;DHT22;7640;53.116;6.878;2023-03-01T14:22:50;11.10;99.90
15083;DHT22;7640;53.116;6.878;2023-03-01T14:25:26;10.80;99.90
15083;DHT22;7640;53.116;6.878;2023-03-01T14:28:00;10.50;99.90
15083;DHT22;7640;53.116;6.878;2023-03-01T14:30:36;10.30;99.90
15083;DHT22;7640;53.116;6.878;2023-03-01T14:33:19;10.20;99.90
15083;DHT22;7640;53.116;6.878;2023-03-01T14:35:58;10.00;99.90
15083;DHT22;7640;53.116;6.878;2023-03-01T14:38:33;10.00;99.90
15083;DHT22;7640;53.116;6.878;2023-03-01T14:41:05;9.90;99.90
15083;DHT22;7640;53.116;6.878;2023-03-01T14:43:35;9.80;99.90
15083;DHT22;7640;53.116;6.878;2023-03-01T14:46:11;9.70;99.90
15083;DHT22;7640;53.116;6.878;2023-03-01T14:48:45;9.70;99.90
15083;DHT22;7640;53.116;6.878;2023-03-01T14:51:17;9.60;99.90
15083;DHT22;7640;53.116;6.878;2023-03-01T14:53:45;9.60;99.90
15083;DHT22;7640;53.116;6.878;2023-03-01T14:56:17;9.60;99.90
15083;DHT22;7640;53.116;6.878;2023-03-01T14:58:46;9.60;99.90
15083;DHT22;7640;53.116;6.878;2023-03-01T15:01:21;9.60;99.90
15083;DHT22;7640;53.116;6.878;2023-03-01T15:03:51;9.60;99.90
15083;DHT22;7640;53.116;6.878;2023-03-01T15:06:21;9.50;99.90
15083;DHT22;7640;53.116;6.878;2023-03-01T15:08:52;9.50;99.90
15083;DHT22;7640;53.116;6.878;2023-03-01T15:11:24;9.50;99.90
15083;DHT22;7640;53.116;6.878;2023-03-01T15:13:56;9.50;99.90
15083;DHT22;7640;53.116;6.878;2023-03-01T15:16:28;9.50;99.90
15083;DHT22;7640;53.116;6.878;2023-03-01T15:19:01;9.50;99.90
15083;DHT22;7640;53.116;6.878;2023-03-01T15:21:32;9.50;99.90
15083;DHT22;7640;53.116;6.878;2023-03-01T15:24:05;9.50;99.90
15083;DHT22;7640;53.116;6.878;2023-03-01T15:26:50;9.40;99.90
15083;DHT22;7640;53.116;6.878;2023-03-01T15:29:24;9.40;99.90
15083;DHT22;7640;53.116;6.878;2023-03-01T15:32:00;9.40;99.90
15083;DHT22;7640;53.116;6.878;2023-03-01T15:34:34;9.40;99.90
15083;DHT22;7640;53.116;6.878;2023-03-01T15:37:05;9.30;99.90
15083;DHT22;7640;53.116;6.878;2023-03-01T15:39:38;9.30;99.90
15083;DHT22;7640;53.116;6.878;2023-03-01T15:42:11;9.30;99.90
15083;DHT22;7640;53.116;6.878;2023-03-01T15:44:43;9.30;99.90
15083;DHT22;7640;53.116;6.878;2023-03-01T15:47:28;9.30;99.90
15083;DHT22;7640;53.116;6.878;2023-03-01T15:49:58;9.20;99.90
15083;DHT22;7640;53.116;6.878;2023-03-01T15:52:32;9.20;99.90
15083;DHT22;7640;53.116;6.878;2023-03-01T15:55:15;9.10;99.90
15083;DHT22;7640;53.116;6.878;2023-03-01T15:57:46;9.10;99.90
15083;DHT22;7640;53.116;6.878;2023-03-01T16:00:16;9.10;99.90
15083;DHT22;7640;53.116;6.878;2023-03-01T16:02:46;9.10;99.90
15083;DHT22;7640;53.116;6.878;2023-03-01T16:05:21;9.00;99.90
15083;DHT22;7640;53.116;6.878;2023-03-01T16:07:52;9.00;99.90
15083;DHT22;7640;53.116;6.878;2023-03-01T16:10:21;8.90;99.90
15083;DHT22;7640;53.116;6.878;2023-03-01T16:12:50;8.80;99.90
15083;DHT22;7640;53.116;6.878;2023-03-01T16:15:21;8.80;99.90
15083;DHT22;7640;53.116;6.878;2023-03-01T16:17:52;8.70;99.90
15083;DHT22;7640;53.116;6.878;2023-03-01T16:20:21;8.60;99.90
15083;DHT22;7640;53.116;6.878;2023-03-01T16:22:58;8.60;99.90
15083;DHT22;7640;53.116;6.878;2023-03-01T16:25:29;8.50;99.90
15083;DHT22;7640;53.116;6.878;2023-03-01T16:27:59;8.50;99.90
15083;DHT22;7640;53.116;6.878;2023-03-01T16:30:31;8.40;99.90
15083;DHT22;7640;53.116;6.878;2023-03-01T16:33:04;8.40;99.90
15083;DHT22;7640;53.116;6.878;2023-03-01T16:35:54;8.30;99.90
15083;DHT22;7640;53.116;6.878;2023-03-01T16:38:23;8.20;99.90
15083;DHT22;7640;53.116;6.878;2023-03-01T16:40:52;8.20;99.90
15083;DHT22;7640;53.116;6.878;2023-03-01T16:43:20;8.10;99.90